sensor_id;sensor_type;location;lat;lon;timestamp;P1;durP1;ratioP1;P2;durP2;ratioP2
9364;SDS011;4722;49.340;9.800;2023-03-20T00:01:11;7.18;;;2.10;;
9364;SDS011;4722;49.340;9.800;2023-03-20T00:03:37;4.80;;;2.05;;
9364;SDS011;4722;49.340;9.800;2023-03-20T00:06:03;4.40;;;2.20;;
9364;SDS011;4722;49.340;9.800;2023-03-20T00:08:29;3.45;;;1.45;;
9364;SDS011;4722;49.340;9.800;2023-03-20T00:10:56;2.47;;;1.38;;
9364;SDS011;4722;49.340;9.800;2023-03-20T00:13:23;2.55;;;1.50;;
9364;SDS011;4722;49.340;9.800;2023-03-20T00:15:50;2.65;;;1.42;;
9364;SDS011;4722;49.340;9.800;2023-03-20T00:18:18;2.78;;;1.40;;
9364;SDS011;4722;49.340;9.800;2023-03-20T00:20:46;3.17;;;1.42;;
9364;SDS011;4722;49.340;9.800;2023-03-20T00:23:12;3.75;;;1.50;;
9364;SDS011;4722;49.340;9.800;2023-03-20T00:25:39;3.13;;;1.67;;
9364;SDS011;4722;49.340;9.800;2023-03-20T00:30:50;2.10;;;1.25;;
9364;SDS011;4722;49.340;9.800;2023-03-20T00:33:16;3.90;;;1.08;;
9364;SDS011;4722;49.340;9.800;2023-03-20T00:35:42;8.77;;;1.77;;
9364;SDS011;4722;49.340;9.800;2023-03-20T00:38:08;4.93;;;1.73;;
9364;SDS011;4722;49.340;9.800;2023-03-20T00:40:34;4.10;;;1.58;;
9364;SDS011;4722;49.340;9.800;2023-03-20T00:43:00;3.95;;;1.65;;
9364;SDS011;4722;49.340;9.800;2023-03-20T00:45:27;3.78;;;1.80;;
9364;SDS011;4722;49.340;9.800;2023-03-20T00:47:54;5.93;;;1.88;;
9364;SDS011;4722;49.340;9.800;2023-03-20T00:50:25;2.38;;;1.08;;
9364;SDS011;4722;49.340;9.800;2023-03-20T00:52:53;2.53;;;1.67;;
9364;SDS011;4722;49.340;9.800;2023-03-20T00:55:21;4.30;;;1.40;;
9364;SDS011;4722;49.340;9.800;2023-03-20T00:57:48;2.90;;;1.60;;
9364;SDS011;4722;49.340;9.800;2023-03-20T01:00:22;7.90;;;2.10;;
9364;SDS011;4722;49.340;9.800;2023-03-20T01:02:50;3.92;;;1.60;;
9364;SDS011;4722;49.340;9.800;2023-03-20T01:05:16;1.90;;;1.35;;
9364;SDS011;4722;49.340;9.800;2023-03-20T01:07:42;2.55;;;1.42;;
9364;SDS011;4722;49.340;9.800;2023-03-20T01:10:10;2.58;;;1.15;;
9364;SDS011;4722;49.340;9.800;2023-03-20T01:12:37;4.45;;;1.33;;
9364;SDS011;4722;49.340;9.800;2023-03-20T01:15:05;6.05;;;1.05;;
9364;SDS011;4722;49.340;9.800;2023-03-20T01:17:41;1.42;;;0.93;;
9364;SDS011;4722;49.340;9.800;2023-03-20T01:20:13;6.15;;;1.75;;
9364;SDS011;4722;49.340;9.800;2023-03-20T01:22:40;7.50;;;1.42;;
9364;SDS011;4722;49.340;9.800;2023-03-20T01:25:06;3.95;;;1.63;;
9364;SDS011;4722;49.340;9.800;2023-03-20T01:27:32;2.97;;;1.70;;
9364;SDS011;4722;49.340;9.800;2023-03-20T01:29:58;4.30;;;1.63;;
9364;SDS011;4722;49.340;9.800;2023-03-20T01:32:24;2.72;;;1.50;;
9364;SDS011;4722;49.340;9.800;2023-03-20T01:34:50;3.95;;;2.42;;
9364;SDS011;4722;49.340;9.800;2023-03-20T01:37:17;7.80;;;2.20;;
9364;SDS011;4722;49.340;9.800;2023-03-20T01:39:47;3.80;;;2.08;;
9364;SDS011;4722;49.340;9.800;2023-03-20T01:42:13;2.50;;;1.52;;
9364;SDS011;4722;49.340;9.800;2023-03-20T01:44:40;4.75;;;1.80;;
9364;SDS011;4722;49.340;9.800;2023-03-20T01:47:16;3.67;;;2.28;;
9364;SDS011;4722;49.340;9.800;2023-03-20T01:52:28;3.38;;;2.15;;
9364;SDS011;4722;49.340;9.800;2023-03-20T01:54:54;6.47;;;1.70;;
9364;SDS011;4722;49.340;9.800;2023-03-20T01:57:20;2.47;;;1.58;;
9364;SDS011;4722;49.340;9.800;2023-03-20T01:59:50;9.73;;;2.67;;
9364;SDS011;4722;49.340;9.800;2023-03-20T02:02:18;3.45;;;2.20;;
9364;SDS011;4722;49.340;9.800;2023-03-20T02:04:47;5.38;;;2.47;;
9364;SDS011;4722;49.340;9.800;2023-03-20T02:07:15;5.97;;;2.80;;
9364;SDS011;4722;49.340;9.800;2023-03-20T02:09:42;3.83;;;2.38;;
9364;SDS011;4722;49.340;9.800;2023-03-20T02:12:09;9.65;;;3.97;;
9364;SDS011;4722;49.340;9.800;2023-03-20T02:14:35;4.80;;;3.28;;
9364;SDS011;4722;49.340;9.800;2023-03-20T02:17:02;7.97;;;3.08;;
9364;SDS011;4722;49.340;9.800;2023-03-20T02:19:30;4.00;;;2.80;;
9364;SDS011;4722;49.340;9.800;2023-03-20T02:32:26;6.45;;;4.00;;
9364;SDS011;4722;49.340;9.800;2023-03-20T02:40:21;8.55;;;4.57;;
9364;SDS011;4722;49.340;9.800;2023-03-20T02:43:05;9.57;;;4.80;;
9364;SDS011;4722;49.340;9.800;2023-03-20T02:50:52;9.43;;;5.38;;
9364;SDS011;4722;49.340;9.800;2023-03-20T02:53:31;8.93;;;4.40;;
9364;SDS011;4722;49.340;9.800;2023-03-20T02:58:48;7.32;;;3.97;;
9364;SDS011;4722;49.340;9.800;2023-03-20T03:01:40;7.28;;;4.03;;
9364;SDS011;4722;49.340;9.800;2023-03-20T03:04:10;9.15;;;4.32;;
9364;SDS011;4722;49.340;9.800;2023-03-20T03:06:41;8.30;;;4.22;;
9364;SDS011;4722;49.340;9.800;2023-03-20T03:09:09;6.63;;;3.67;;
9364;SDS011;4722;49.340;9.800;2023-03-20T03:11:37;8.23;;;4.47;;
9364;SDS011;4722;49.340;9.800;2023-03-20T03:14:06;8.88;;;4.60;;
9364;SDS011;4722;49.340;9.800;2023-03-20T03:16:37;9.63;;;4.85;;
9364;SDS011;4722;49.340;9.800;2023-03-20T03:21:37;8.77;;;4.72;;
9364;SDS011;4722;49.340;9.800;2023-03-20T03:24:04;6.85;;;4.50;;
9364;SDS011;4722;49.340;9.800;2023-03-20T03:26:31;7.95;;;4.68;;
9364;SDS011;4722;49.340;9.800;2023-03-20T03:28:59;7.30;;;4.10;;
9364;SDS011;4722;49.340;9.800;2023-03-20T03:31:27;6.75;;;4.43;;
9364;SDS011;4722;49.340;9.800;2023-03-20T03:33:55;10.77;;;3.50;;
9364;SDS011;4722;49.340;9.800;2023-03-20T03:38:58;7.47;;;3.65;;
9364;SDS011;4722;49.340;9.800;2023-03-20T03:41:28;6.20;;;2.92;;
9364;SDS011;4722;49.340;9.800;2023-03-20T03:46:24;6.72;;;2.97;;
9364;SDS011;4722;49.340;9.800;2023-03-20T03:49:14;5.45;;;3.15;;
9364;SDS011;4722;49.340;9.800;2023-03-20T03:51:45;4.85;;;2.67;;
9364;SDS011;4722;49.340;9.800;2023-03-20T03:54:18;5.85;;;2.90;;
9364;SDS011;4722;49.340;9.800;2023-03-20T03:56:46;5.47;;;2.78;;
9364;SDS011;4722;49.340;9.800;2023-03-20T03:59:21;3.10;;;2.20;;
9364;SDS011;4722;49.340;9.800;2023-03-20T04:01:49;4.15;;;2.17;;
9364;SDS011;4722;49.340;9.800;2023-03-20T04:04:16;4.03;;;2.30;;
9364;SDS011;4722;49.340;9.800;2023-03-20T04:06:42;8.07;;;2.92;;
9364;SDS011;4722;49.340;9.800;2023-03-20T04:09:08;4.45;;;2.30;;
9364;SDS011;4722;49.340;9.800;2023-03-20T04:11:34;4.43;;;2.15;;
9364;SDS011;4722;49.340;9.800;2023-03-20T04:14:00;3.85;;;1.77;;
9364;SDS011;4722;49.340;9.800;2023-03-20T04:16:26;4.65;;;2.63;;
9364;SDS011;4722;49.340;9.800;2023-03-20T04:18:52;5.15;;;2.35;;
9364;SDS011;4722;49.340;9.800;2023-03-20T04:21:20;4.40;;;2.45;;
9364;SDS011;4722;49.340;9.800;2023-03-20T04:23:46;3.85;;;1.92;;
9364;SDS011;4722;49.340;9.800;2023-03-20T04:26:12;3.38;;;1.77;;
9364;SDS011;4722;49.340;9.800;2023-03-20T04:28:38;4.10;;;1.77;;
9364;SDS011;4722;49.340;9.800;2023-03-20T04:31:04;6.82;;;1.80;;
9364;SDS011;4722;49.340;9.800;2023-03-20T04:33:30;5.68;;;2.65;;
9364;SDS011;4722;49.340;9.800;2023-03-20T04:35:56;4.35;;;2.38;;
9364;SDS011;4722;49.340;9.800;2023-03-20T04:38:23;5.03;;;2.75;;
9364;SDS011;4722;49.340;9.800;2023-03-20T04:40:49;4.75;;;2.72;;
9364;SDS011;4722;49.340;9.800;2023-03-20T04:43:15;5.10;;;2.45;;
9364;SDS011;4722;49.340;9.800;2023-03-20T04:45:42;4.47;;;2.15;;
9364;SDS011;4722;49.340;9.800;2023-03-20T04:48:08;4.15;;;1.90;;
9364;SDS011;4722;49.340;9.800;2023-03-20T04:50:34;3.97;;;2.55;;
9364;SDS011;4722;49.340;9.800;2023-03-20T04:53:00;4.20;;;2.22;;
9364;SDS011;4722;49.340;9.800;2023-03-20T04:55:26;4.10;;;2.00;;
9364;SDS011;4722;49.340;9.800;2023-03-20T04:57:52;4.55;;;2.40;;
9364;SDS011;4722;49.340;9.800;2023-03-20T05:00:18;5.90;;;2.08;;
9364;SDS011;4722;49.340;9.800;2023-03-20T05:02:44;5.38;;;2.45;;
9364;SDS011;4722;49.340;9.800;2023-03-20T05:05:10;4.18;;;1.92;;
9364;SDS011;4722;49.340;9.800;2023-03-20T05:07:36;2.67;;;1.65;;
9364;SDS011;4722;49.340;9.800;2023-03-20T05:10:02;5.05;;;2.17;;
9364;SDS011;4722;49.340;9.800;2023-03-20T05:12:29;4.30;;;1.85;;
9364;SDS011;4722;49.340;9.800;2023-03-20T05:14:55;3.60;;;1.80;;
9364;SDS011;4722;49.340;9.800;2023-03-20T05:17:21;4.97;;;1.92;;
9364;SDS011;4722;49.340;9.800;2023-03-20T05:19:48;6.38;;;2.63;;
9364;SDS011;4722;49.340;9.800;2023-03-20T05:22:14;3.58;;;2.33;;
9364;SDS011;4722;49.340;9.800;2023-03-20T05:24:40;3.97;;;2.00;;
9364;SDS011;4722;49.340;9.800;2023-03-20T05:27:06;4.53;;;1.88;;
9364;SDS011;4722;49.340;9.800;2023-03-20T05:29:32;5.55;;;1.90;;
9364;SDS011;4722;49.340;9.800;2023-03-20T05:31:58;3.38;;;1.35;;
9364;SDS011;4722;49.340;9.800;2023-03-20T05:34:24;2.28;;;1.45;;
9364;SDS011;4722;49.340;9.800;2023-03-20T05:36:51;3.75;;;1.77;;
9364;SDS011;4722;49.340;9.800;2023-03-20T05:39:17;3.15;;;1.70;;
9364;SDS011;4722;49.340;9.800;2023-03-20T05:41:43;3.90;;;1.90;;
9364;SDS011;4722;49.340;9.800;2023-03-20T05:44:09;4.78;;;2.05;;
9364;SDS011;4722;49.340;9.800;2023-03-20T05:46:35;3.92;;;1.67;;
9364;SDS011;4722;49.340;9.800;2023-03-20T05:49:01;4.65;;;2.53;;
9364;SDS011;4722;49.340;9.800;2023-03-20T05:51:27;3.70;;;1.70;;
9364;SDS011;4722;49.340;9.800;2023-03-20T05:53:53;4.00;;;2.10;;
9364;SDS011;4722;49.340;9.800;2023-03-20T05:56:19;3.92;;;1.63;;
9364;SDS011;4722;49.340;9.800;2023-03-20T05:58:45;5.07;;;1.80;;
9364;SDS011;4722;49.340;9.800;2023-03-20T06:01:11;7.93;;;2.72;;
9364;SDS011;4722;49.340;9.800;2023-03-20T06:03:40;7.18;;;2.75;;
9364;SDS011;4722;49.340;9.800;2023-03-20T06:06:06;5.30;;;2.38;;
9364;SDS011;4722;49.340;9.800;2023-03-20T06:08:32;11.30;;;3.20;;
9364;SDS011;4722;49.340;9.800;2023-03-20T06:11:00;5.10;;;2.38;;
9364;SDS011;4722;49.340;9.800;2023-03-20T06:13:26;11.00;;;4.63;;
9364;SDS011;4722;49.340;9.800;2023-03-20T06:15:52;11.85;;;4.78;;
9364;SDS011;4722;49.340;9.800;2023-03-20T06:18:18;7.95;;;4.07;;
9364;SDS011;4722;49.340;9.800;2023-03-20T06:20:43;6.63;;;2.92;;
9364;SDS011;4722;49.340;9.800;2023-03-20T06:23:09;7.35;;;4.45;;
9364;SDS011;4722;49.340;9.800;2023-03-20T06:25:36;8.13;;;3.35;;
9364;SDS011;4722;49.340;9.800;2023-03-20T06:28:02;5.88;;;2.75;;
9364;SDS011;4722;49.340;9.800;2023-03-20T06:30:28;5.32;;;3.20;;
9364;SDS011;4722;49.340;9.800;2023-03-20T06:32:54;5.50;;;2.67;;
9364;SDS011;4722;49.340;9.800;2023-03-20T06:35:20;6.18;;;2.92;;
9364;SDS011;4722;49.340;9.800;2023-03-20T06:37:46;5.63;;;2.92;;
9364;SDS011;4722;49.340;9.800;2023-03-20T06:40:12;6.28;;;2.47;;
9364;SDS011;4722;49.340;9.800;2023-03-20T06:42:38;2.88;;;1.65;;
9364;SDS011;4722;49.340;9.800;2023-03-20T06:45:04;10.35;;;2.30;;
9364;SDS011;4722;49.340;9.800;2023-03-20T06:47:30;5.07;;;2.33;;
9364;SDS011;4722;49.340;9.800;2023-03-20T06:49:56;6.32;;;2.83;;
9364;SDS011;4722;49.340;9.800;2023-03-20T06:52:22;5.68;;;2.17;;
9364;SDS011;4722;49.340;9.800;2023-03-20T06:54:49;7.13;;;2.60;;
9364;SDS011;4722;49.340;9.800;2023-03-20T06:57:16;9.70;;;2.92;;
9364;SDS011;4722;49.340;9.800;2023-03-20T06:59:42;4.95;;;2.00;;
9364;SDS011;4722;49.340;9.800;2023-03-20T07:02:09;4.18;;;2.42;;
9364;SDS011;4722;49.340;9.800;2023-03-20T07:04:35;6.18;;;2.53;;
9364;SDS011;4722;49.340;9.800;2023-03-20T07:07:01;8.50;;;2.47;;
9364;SDS011;4722;49.340;9.800;2023-03-20T07:09:27;5.70;;;2.50;;
9364;SDS011;4722;49.340;9.800;2023-03-20T07:11:53;4.55;;;2.10;;
9364;SDS011;4722;49.340;9.800;2023-03-20T07:14:19;5.40;;;2.63;;
9364;SDS011;4722;49.340;9.800;2023-03-20T07:16:46;4.97;;;2.08;;
9364;SDS011;4722;49.340;9.800;2023-03-20T07:19:12;4.80;;;2.50;;
9364;SDS011;4722;49.340;9.800;2023-03-20T07:21:38;3.50;;;1.63;;
9364;SDS011;4722;49.340;9.800;2023-03-20T07:24:04;4.25;;;2.08;;
9364;SDS011;4722;49.340;9.800;2023-03-20T07:26:31;5.60;;;3.00;;
9364;SDS011;4722;49.340;9.800;2023-03-20T07:28:56;4.78;;;1.88;;
9364;SDS011;4722;49.340;9.800;2023-03-20T07:31:24;7.47;;;2.95;;
9364;SDS011;4722;49.340;9.800;2023-03-20T07:33:50;5.32;;;2.75;;
9364;SDS011;4722;49.340;9.800;2023-03-20T07:36:16;6.72;;;2.42;;
9364;SDS011;4722;49.340;9.800;2023-03-20T07:38:42;8.40;;;3.40;;
9364;SDS011;4722;49.340;9.800;2023-03-20T07:41:08;6.95;;;3.33;;
9364;SDS011;4722;49.340;9.800;2023-03-20T07:43:34;7.63;;;4.13;;
9364;SDS011;4722;49.340;9.800;2023-03-20T07:46:01;8.80;;;4.00;;
9364;SDS011;4722;49.340;9.800;2023-03-20T07:48:27;11.20;;;5.03;;
9364;SDS011;4722;49.340;9.800;2023-03-20T07:50:53;10.82;;;4.93;;
9364;SDS011;4722;49.340;9.800;2023-03-20T07:53:19;14.77;;;5.97;;
9364;SDS011;4722;49.340;9.800;2023-03-20T07:55:45;11.55;;;5.72;;
9364;SDS011;4722;49.340;9.800;2023-03-20T07:58:11;32.80;;;11.48;;
9364;SDS011;4722;49.340;9.800;2023-03-20T08:00:37;10.77;;;5.13;;
9364;SDS011;4722;49.340;9.800;2023-03-20T08:03:03;8.77;;;4.57;;
9364;SDS011;4722;49.340;9.800;2023-03-20T08:05:29;11.23;;;4.95;;
9364;SDS011;4722;49.340;9.800;2023-03-20T08:07:56;8.88;;;4.88;;
9364;SDS011;4722;49.340;9.800;2023-03-20T08:10:21;8.88;;;3.78;;
9364;SDS011;4722;49.340;9.800;2023-03-20T08:12:47;13.77;;;4.18;;
9364;SDS011;4722;49.340;9.800;2023-03-20T08:15:13;7.18;;;3.53;;
9364;SDS011;4722;49.340;9.800;2023-03-20T08:17:41;8.98;;;3.22;;
9364;SDS011;4722;49.340;9.800;2023-03-20T08:20:07;7.85;;;3.72;;
9364;SDS011;4722;49.340;9.800;2023-03-20T08:22:33;5.78;;;3.03;;
9364;SDS011;4722;49.340;9.800;2023-03-20T08:24:59;7.78;;;3.45;;
9364;SDS011;4722;49.340;9.800;2023-03-20T08:27:25;5.55;;;2.83;;
9364;SDS011;4722;49.340;9.800;2023-03-20T08:29:51;7.63;;;2.97;;
9364;SDS011;4722;49.340;9.800;2023-03-20T08:32:17;5.80;;;3.22;;
9364;SDS011;4722;49.340;9.800;2023-03-20T08:34:43;8.80;;;3.72;;
9364;SDS011;4722;49.340;9.800;2023-03-20T08:37:09;8.25;;;4.55;;
9364;SDS011;4722;49.340;9.800;2023-03-20T08:39:36;6.97;;;3.35;;
9364;SDS011;4722;49.340;9.800;2023-03-20T08:42:03;6.63;;;2.83;;
9364;SDS011;4722;49.340;9.800;2023-03-20T08:44:29;4.97;;;2.70;;
9364;SDS011;4722;49.340;9.800;2023-03-20T08:46:55;5.80;;;3.30;;
9364;SDS011;4722;49.340;9.800;2023-03-20T08:49:21;6.47;;;2.72;;
9364;SDS011;4722;49.340;9.800;2023-03-20T08:51:47;6.97;;;3.05;;
9364;SDS011;4722;49.340;9.800;2023-03-20T08:54:13;8.93;;;3.05;;
9364;SDS011;4722;49.340;9.800;2023-03-20T08:56:42;4.90;;;2.70;;
9364;SDS011;4722;49.340;9.800;2023-03-20T08:59:08;5.95;;;2.85;;
9364;SDS011;4722;49.340;9.800;2023-03-20T09:01:34;5.45;;;2.50;;
9364;SDS011;4722;49.340;9.800;2023-03-20T09:04:00;7.93;;;2.63;;
9364;SDS011;4722;49.340;9.800;2023-03-20T09:06:26;6.75;;;2.60;;
9364;SDS011;4722;49.340;9.800;2023-03-20T09:08:53;5.85;;;2.45;;
9364;SDS011;4722;49.340;9.800;2023-03-20T09:11:19;11.60;;;3.85;;
9364;SDS011;4722;49.340;9.800;2023-03-20T09:13:45;6.95;;;2.80;;
9364;SDS011;4722;49.340;9.800;2023-03-20T09:16:11;5.60;;;2.90;;
9364;SDS011;4722;49.340;9.800;2023-03-20T09:18:36;7.70;;;2.60;;
9364;SDS011;4722;49.340;9.800;2023-03-20T09:21:02;8.18;;;2.50;;
9364;SDS011;4722;49.340;9.800;2023-03-20T09:23:29;6.47;;;2.55;;
9364;SDS011;4722;49.340;9.800;2023-03-20T09:25:56;3.75;;;2.35;;
9364;SDS011;4722;49.340;9.800;2023-03-20T09:28:22;8.10;;;3.33;;
9364;SDS011;4722;49.340;9.800;2023-03-20T09:30:48;6.65;;;2.42;;
9364;SDS011;4722;49.340;9.800;2023-03-20T09:33:14;6.20;;;2.78;;
9364;SDS011;4722;49.340;9.800;2023-03-20T09:35:40;5.63;;;2.25;;
9364;SDS011;4722;49.340;9.800;2023-03-20T09:38:06;9.77;;;3.20;;
9364;SDS011;4722;49.340;9.800;2023-03-20T09:49:12;4.93;;;2.80;;
9364;SDS011;4722;49.340;9.800;2023-03-20T09:51:47;10.65;;;3.53;;
9364;SDS011;4722;49.340;9.800;2023-03-20T09:54:32;5.95;;;2.60;;
9364;SDS011;4722;49.340;9.800;2023-03-20T09:57:00;5.90;;;2.58;;
9364;SDS011;4722;49.340;9.800;2023-03-20T09:59:26;7.88;;;3.05;;
9364;SDS011;4722;49.340;9.800;2023-03-20T10:01:53;6.03;;;3.08;;
9364;SDS011;4722;49.340;9.800;2023-03-20T10:04:19;6.88;;;3.10;;
9364;SDS011;4722;49.340;9.800;2023-03-20T10:06:46;7.07;;;3.53;;
9364;SDS011;4722;49.340;9.800;2023-03-20T10:09:16;8.75;;;3.25;;
9364;SDS011;4722;49.340;9.800;2023-03-20T10:20:11;10.82;;;2.83;;
9364;SDS011;4722;49.340;9.800;2023-03-20T10:22:39;6.47;;;2.97;;
9364;SDS011;4722;49.340;9.800;2023-03-20T10:25:14;5.78;;;2.35;;
9364;SDS011;4722;49.340;9.800;2023-03-20T10:27:42;3.72;;;1.95;;
9364;SDS011;4722;49.340;9.800;2023-03-20T10:35:21;4.43;;;2.15;;
9364;SDS011;4722;49.340;9.800;2023-03-20T10:40:30;5.35;;;2.47;;
9364;SDS011;4722;49.340;9.800;2023-03-20T10:43:03;13.40;;;3.33;;
9364;SDS011;4722;49.340;9.800;2023-03-20T10:45:41;8.25;;;4.30;;
9364;SDS011;4722;49.340;9.800;2023-03-20T10:48:34;7.70;;;3.58;;
9364;SDS011;4722;49.340;9.800;2023-03-20T10:51:01;6.05;;;2.90;;
9364;SDS011;4722;49.340;9.800;2023-03-20T10:55:54;9.05;;;3.25;;
9364;SDS011;4722;49.340;9.800;2023-03-20T10:58:28;7.70;;;3.35;;
9364;SDS011;4722;49.340;9.800;2023-03-20T11:00:56;9.95;;;3.90;;
9364;SDS011;4722;49.340;9.800;2023-03-20T11:03:24;7.43;;;3.53;;
9364;SDS011;4722;49.340;9.800;2023-03-20T11:05:56;8.90;;;3.42;;
9364;SDS011;4722;49.340;9.800;2023-03-20T11:08:38;9.23;;;3.28;;
9364;SDS011;4722;49.340;9.800;2023-03-20T11:11:05;6.88;;;4.30;;
9364;SDS011;4722;49.340;9.800;2023-03-20T11:13:32;8.00;;;4.18;;
9364;SDS011;4722;49.340;9.800;2023-03-20T11:18:45;7.22;;;3.80;;
9364;SDS011;4722;49.340;9.800;2023-03-20T11:21:31;5.72;;;2.58;;
9364;SDS011;4722;49.340;9.800;2023-03-20T11:23:57;9.55;;;4.60;;
9364;SDS011;4722;49.340;9.800;2023-03-20T11:29:06;9.88;;;5.03;;
9364;SDS011;4722;49.340;9.800;2023-03-20T11:31:39;14.63;;;5.32;;
9364;SDS011;4722;49.340;9.800;2023-03-20T11:36:31;14.40;;;6.50;;
9364;SDS011;4722;49.340;9.800;2023-03-20T11:39:15;14.65;;;5.03;;
9364;SDS011;4722;49.340;9.800;2023-03-20T11:41:47;12.45;;;5.47;;
9364;SDS011;4722;49.340;9.800;2023-03-20T11:49:27;15.50;;;6.50;;
9364;SDS011;4722;49.340;9.800;2023-03-20T11:51:53;15.68;;;6.15;;
9364;SDS011;4722;49.340;9.800;2023-03-20T11:54:23;13.50;;;6.35;;
9364;SDS011;4722;49.340;9.800;2023-03-20T11:56:52;17.02;;;6.40;;
9364;SDS011;4722;49.340;9.800;2023-03-20T11:59:18;17.15;;;5.60;;
9364;SDS011;4722;49.340;9.800;2023-03-20T12:01:45;14.80;;;7.22;;
9364;SDS011;4722;49.340;9.800;2023-03-20T12:04:14;14.27;;;5.95;;
9364;SDS011;4722;49.340;9.800;2023-03-20T12:07:02;11.05;;;5.20;;
9364;SDS011;4722;49.340;9.800;2023-03-20T12:17:51;15.90;;;6.07;;
9364;SDS011;4722;49.340;9.800;2023-03-20T12:19:50;11.35;;;4.72;;
9364;SDS011;4722;49.340;9.800;2023-03-20T12:22:29;12.45;;;5.82;;
9364;SDS011;4722;49.340;9.800;2023-03-20T12:27:55;13.75;;;4.80;;
9364;SDS011;4722;49.340;9.800;2023-03-20T12:30:29;10.63;;;4.88;;
9364;SDS011;4722;49.340;9.800;2023-03-20T12:33:07;12.77;;;5.72;;
9364;SDS011;4722;49.340;9.800;2023-03-20T12:35:36;12.07;;;5.20;;
9364;SDS011;4722;49.340;9.800;2023-03-20T12:43:40;11.30;;;4.90;;
9364;SDS011;4722;49.340;9.800;2023-03-20T12:46:24;16.80;;;7.55;;
9364;SDS011;4722;49.340;9.800;2023-03-20T12:57:35;16.33;;;7.80;;
9364;SDS011;4722;49.340;9.800;2023-03-20T13:02:39;15.57;;;6.22;;
9364;SDS011;4722;49.340;9.800;2023-03-20T13:05:11;12.93;;;6.15;;
9364;SDS011;4722;49.340;9.800;2023-03-20T13:07:51;15.55;;;7.28;;
9364;SDS011;4722;49.340;9.800;2023-03-20T13:12:54;10.30;;;5.40;;
9364;SDS011;4722;49.340;9.800;2023-03-20T13:18:04;12.18;;;5.40;;
9364;SDS011;4722;49.340;9.800;2023-03-20T13:20:44;9.27;;;4.88;;
9364;SDS011;4722;49.340;9.800;2023-03-20T13:23:18;10.90;;;4.50;;
9364;SDS011;4722;49.340;9.800;2023-03-20T13:25:50;6.70;;;3.10;;
9364;SDS011;4722;49.340;9.800;2023-03-20T13:37:18;4.53;;;2.42;;
9364;SDS011;4722;49.340;9.800;2023-03-20T13:45:43;5.25;;;2.20;;
9364;SDS011;4722;49.340;9.800;2023-03-20T13:48:24;6.80;;;2.40;;
9364;SDS011;4722;49.340;9.800;2023-03-20T13:53:36;5.40;;;2.35;;
9364;SDS011;4722;49.340;9.800;2023-03-20T14:01:28;5.47;;;2.28;;
9364;SDS011;4722;49.340;9.800;2023-03-20T14:03:54;4.63;;;2.17;;
9364;SDS011;4722;49.340;9.800;2023-03-20T14:08:55;7.78;;;3.03;;
9364;SDS011;4722;49.340;9.800;2023-03-20T14:13:58;6.47;;;2.40;;
9364;SDS011;4722;49.340;9.800;2023-03-20T14:16:30;4.05;;;2.03;;
9364;SDS011;4722;49.340;9.800;2023-03-20T14:19:13;4.45;;;2.75;;
9364;SDS011;4722;49.340;9.800;2023-03-20T14:21:49;4.57;;;2.33;;
9364;SDS011;4722;49.340;9.800;2023-03-20T14:24:16;4.30;;;1.88;;
9364;SDS011;4722;49.340;9.800;2023-03-20T14:26:46;5.78;;;2.58;;
9364;SDS011;4722;49.340;9.800;2023-03-20T14:31:40;3.42;;;1.80;;
9364;SDS011;4722;49.340;9.800;2023-03-20T14:47:53;2.50;;;1.35;;
9364;SDS011;4722;49.340;9.800;2023-03-20T14:50:48;3.00;;;1.17;;
9364;SDS011;4722;49.340;9.800;2023-03-20T14:53:18;3.22;;;1.52;;
9364;SDS011;4722;49.340;9.800;2023-03-20T15:01:03;2.90;;;1.38;;
9364;SDS011;4722;49.340;9.800;2023-03-20T15:03:31;3.15;;;1.20;;
9364;SDS011;4722;49.340;9.800;2023-03-20T15:05:58;4.15;;;1.25;;
9364;SDS011;4722;49.340;9.800;2023-03-20T15:08:28;4.15;;;1.23;;
9364;SDS011;4722;49.340;9.800;2023-03-20T15:10:57;1.95;;;0.93;;
9364;SDS011;4722;49.340;9.800;2023-03-20T15:13:24;2.17;;;1.15;;
9364;SDS011;4722;49.340;9.800;2023-03-20T15:15:58;2.72;;;1.45;;
9364;SDS011;4722;49.340;9.800;2023-03-20T15:18:26;1.65;;;0.80;;
9364;SDS011;4722;49.340;9.800;2023-03-20T15:20:55;2.38;;;1.02;;
9364;SDS011;4722;49.340;9.800;2023-03-20T15:23:21;2.88;;;1.23;;
9364;SDS011;4722;49.340;9.800;2023-03-20T15:25:47;2.55;;;1.40;;
9364;SDS011;4722;49.340;9.800;2023-03-20T15:28:32;2.50;;;1.20;;
9364;SDS011;4722;49.340;9.800;2023-03-20T15:31:01;2.45;;;1.33;;
9364;SDS011;4722;49.340;9.800;2023-03-20T15:33:30;4.38;;;1.77;;
9364;SDS011;4722;49.340;9.800;2023-03-20T15:36:05;6.82;;;2.53;;
9364;SDS011;4722;49.340;9.800;2023-03-20T15:38:32;3.63;;;1.83;;
9364;SDS011;4722;49.340;9.800;2023-03-20T15:40:59;4.80;;;1.77;;
9364;SDS011;4722;49.340;9.800;2023-03-20T15:43:29;3.30;;;0.98;;
9364;SDS011;4722;49.340;9.800;2023-03-20T15:45:55;8.73;;;1.60;;
9364;SDS011;4722;49.340;9.800;2023-03-20T15:48:22;3.15;;;1.38;;
9364;SDS011;4722;49.340;9.800;2023-03-20T15:50:56;2.42;;;1.08;;
9364;SDS011;4722;49.340;9.800;2023-03-20T15:53:33;3.13;;;1.48;;
9364;SDS011;4722;49.340;9.800;2023-03-20T15:56:09;4.35;;;2.05;;
9364;SDS011;4722;49.340;9.800;2023-03-20T15:58:37;2.45;;;1.50;;
9364;SDS011;4722;49.340;9.800;2023-03-20T16:01:03;5.65;;;1.52;;
9364;SDS011;4722;49.340;9.800;2023-03-20T16:03:30;2.28;;;1.52;;
9364;SDS011;4722;49.340;9.800;2023-03-20T16:05:58;3.17;;;1.52;;
9364;SDS011;4722;49.340;9.800;2023-03-20T16:08:31;3.38;;;1.55;;
9364;SDS011;4722;49.340;9.800;2023-03-20T16:11:07;4.57;;;1.58;;
9364;SDS011;4722;49.340;9.800;2023-03-20T16:13:38;3.00;;;1.25;;
9364;SDS011;4722;49.340;9.800;2023-03-20T16:16:11;2.10;;;1.13;;
9364;SDS011;4722;49.340;9.800;2023-03-20T16:19:01;2.70;;;1.73;;
9364;SDS011;4722;49.340;9.800;2023-03-20T16:21:28;2.80;;;1.23;;
9364;SDS011;4722;49.340;9.800;2023-03-20T16:23:55;3.15;;;1.15;;
9364;SDS011;4722;49.340;9.800;2023-03-20T16:26:23;2.70;;;1.00;;
9364;SDS011;4722;49.340;9.800;2023-03-20T16:28:54;1.98;;;1.00;;
9364;SDS011;4722;49.340;9.800;2023-03-20T16:31:24;1.70;;;1.08;;
9364;SDS011;4722;49.340;9.800;2023-03-20T16:33:50;5.60;;;1.90;;
9364;SDS011;4722;49.340;9.800;2023-03-20T16:36:17;3.58;;;2.00;;
9364;SDS011;4722;49.340;9.800;2023-03-20T16:41:31;5.90;;;1.45;;
9364;SDS011;4722;49.340;9.800;2023-03-20T16:46:56;4.20;;;1.75;;
9364;SDS011;4722;49.340;9.800;2023-03-20T16:51:59;3.72;;;1.48;;
9364;SDS011;4722;49.340;9.800;2023-03-20T16:54:27;5.80;;;2.08;;
9364;SDS011;4722;49.340;9.800;2023-03-20T16:56:54;2.95;;;1.27;;
9364;SDS011;4722;49.340;9.800;2023-03-20T16:59:20;3.50;;;1.80;;
9364;SDS011;4722;49.340;9.800;2023-03-20T17:01:47;2.55;;;1.33;;
9364;SDS011;4722;49.340;9.800;2023-03-20T17:06:58;2.30;;;1.20;;
9364;SDS011;4722;49.340;9.800;2023-03-20T17:09:26;1.58;;;0.88;;
9364;SDS011;4722;49.340;9.800;2023-03-20T17:11:59;2.25;;;0.80;;
9364;SDS011;4722;49.340;9.800;2023-03-20T17:14:27;1.55;;;1.00;;
9364;SDS011;4722;49.340;9.800;2023-03-20T17:16:53;3.72;;;1.63;;
9364;SDS011;4722;49.340;9.800;2023-03-20T17:19:21;4.30;;;1.13;;
9364;SDS011;4722;49.340;9.800;2023-03-20T17:21:47;3.10;;;1.55;;
9364;SDS011;4722;49.340;9.800;2023-03-20T17:24:13;3.10;;;1.02;;
9364;SDS011;4722;49.340;9.800;2023-03-20T17:26:40;1.58;;;0.93;;
9364;SDS011;4722;49.340;9.800;2023-03-20T17:29:08;1.92;;;0.95;;
9364;SDS011;4722;49.340;9.800;2023-03-20T17:31:35;2.13;;;1.10;;
9364;SDS011;4722;49.340;9.800;2023-03-20T17:34:01;3.40;;;1.20;;
9364;SDS011;4722;49.340;9.800;2023-03-20T17:36:28;3.30;;;1.13;;
9364;SDS011;4722;49.340;9.800;2023-03-20T17:38:55;2.45;;;1.00;;
9364;SDS011;4722;49.340;9.800;2023-03-20T17:41:21;3.50;;;1.02;;
9364;SDS011;4722;49.340;9.800;2023-03-20T17:43:47;2.90;;;0.70;;
9364;SDS011;4722;49.340;9.800;2023-03-20T17:48:44;2.70;;;1.10;;
9364;SDS011;4722;49.340;9.800;2023-03-20T17:51:10;1.08;;;0.70;;
9364;SDS011;4722;49.340;9.800;2023-03-20T17:53:36;2.38;;;1.00;;
9364;SDS011;4722;49.340;9.800;2023-03-20T17:56:04;1.52;;;0.68;;
9364;SDS011;4722;49.340;9.800;2023-03-20T17:58:30;2.63;;;1.05;;
9364;SDS011;4722;49.340;9.800;2023-03-20T18:00:56;1.85;;;0.80;;
9364;SDS011;4722;49.340;9.800;2023-03-20T18:03:22;2.30;;;0.98;;
9364;SDS011;4722;49.340;9.800;2023-03-20T18:05:49;3.45;;;1.50;;
9364;SDS011;4722;49.340;9.800;2023-03-20T18:08:16;2.67;;;1.35;;
9364;SDS011;4722;49.340;9.800;2023-03-20T18:10:45;3.45;;;1.27;;
9364;SDS011;4722;49.340;9.800;2023-03-20T18:13:11;2.65;;;1.58;;